sensor_id;sensor_type;location;lat;lon;timestamp;P1;durP1;ratioP1;P2;durP2;ratioP2
39050;SDS011;24805;55.852;37.644;2023-08-06T00:02:34;29.63;;;19.98;;
39050;SDS011;24805;55.852;37.644;2023-08-06T00:07:37;19.80;;;10.75;;
39050;SDS011;24805;55.852;37.644;2023-08-06T00:12:39;21.42;;;9.82;;
39050;SDS011;24805;55.852;37.644;2023-08-06T00:17:42;19.55;;;9.77;;
39050;SDS011;24805;55.852;37.644;2023-08-06T00:22:44;17.75;;;7.32;;
39050;SDS011;24805;55.852;37.644;2023-08-06T00:27:46;16.27;;;7.95;;
39050;SDS011;24805;55.852;37.644;2023-08-06T00:32:49;15.73;;;8.00;;
39050;SDS011;24805;55.852;37.644;2023-08-06T00:37:51;14.55;;;7.15;;
39050;SDS011;24805;55.852;37.644;2023-08-06T00:42:53;14.73;;;7.80;;
39050;SDS011;24805;55.852;37.644;2023-08-06T00:47:56;15.88;;;6.60;;
39050;SDS011;24805;55.852;37.644;2023-08-06T00:52:58;18.65;;;7.50;;
39050;SDS011;24805;55.852;37.644;2023-08-06T00:58:01;14.73;;;7.13;;
39050;SDS011;24805;55.852;37.644;2023-08-06T01:03:04;16.25;;;7.65;;
39050;SDS011;24805;55.852;37.644;2023-08-06T01:13:28;16.73;;;8.77;;
39050;SDS011;24805;55.852;37.644;2023-08-06T01:18:38;13.02;;;8.32;;
39050;SDS011;24805;55.852;37.644;2023-08-06T01:23:43;12.68;;;8.90;;
39050;SDS011;24805;55.852;37.644;2023-08-06T01:33:53;17.70;;;10.18;;
39050;SDS011;24805;55.852;37.644;2023-08-06T01:38:57;18.85;;;9.88;;
39050;SDS011;24805;55.852;37.644;2023-08-06T01:44:00;19.38;;;10.57;;
39050;SDS011;24805;55.852;37.644;2023-08-06T01:49:03;22.05;;;10.18;;
39050;SDS011;24805;55.852;37.644;2023-08-06T01:54:05;25.95;;;11.80;;
39050;SDS011;24805;55.852;37.644;2023-08-06T01:59:08;29.67;;;15.05;;
39050;SDS011;24805;55.852;37.644;2023-08-06T02:04:10;28.00;;;11.90;;
39050;SDS011;24805;55.852;37.644;2023-08-06T02:09:12;27.08;;;12.55;;
39050;SDS011;24805;55.852;37.644;2023-08-06T02:14:16;28.45;;;13.70;;
39050;SDS011;24805;55.852;37.644;2023-08-06T02:19:18;16.92;;;10.20;;
39050;SDS011;24805;55.852;37.644;2023-08-06T02:24:21;21.17;;;11.05;;
39050;SDS011;24805;55.852;37.644;2023-08-06T02:29:23;21.05;;;10.32;;
39050;SDS011;24805;55.852;37.644;2023-08-06T02:34:25;18.23;;;10.13;;
39050;SDS011;24805;55.852;37.644;2023-08-06T02:39:27;21.63;;;10.27;;
39050;SDS011;24805;55.852;37.644;2023-08-06T02:44:32;19.20;;;11.02;;
39050;SDS011;24805;55.852;37.644;2023-08-06T02:49:35;32.20;;;14.18;;
39050;SDS011;24805;55.852;37.644;2023-08-06T02:54:37;31.52;;;14.00;;
39050;SDS011;24805;55.852;37.644;2023-08-06T02:59:40;27.10;;;12.68;;
39050;SDS011;24805;55.852;37.644;2023-08-06T03:04:54;31.10;;;12.98;;
39050;SDS011;24805;55.852;37.644;2023-08-06T03:10:04;21.40;;;11.98;;
39050;SDS011;24805;55.852;37.644;2023-08-06T03:15:07;19.95;;;11.27;;
39050;SDS011;24805;55.852;37.644;2023-08-06T03:20:10;21.88;;;10.68;;
39050;SDS011;24805;55.852;37.644;2023-08-06T03:25:12;19.38;;;10.35;;
39050;SDS011;24805;55.852;37.644;2023-08-06T03:30:19;28.48;;;12.13;;
39050;SDS011;24805;55.852;37.644;2023-08-06T03:35:23;22.52;;;12.35;;
39050;SDS011;24805;55.852;37.644;2023-08-06T03:40:25;26.20;;;13.43;;
39050;SDS011;24805;55.852;37.644;2023-08-06T03:45:29;21.70;;;11.73;;
39050;SDS011;24805;55.852;37.644;2023-08-06T03:50:32;18.00;;;10.45;;
39050;SDS011;24805;55.852;37.644;2023-08-06T03:55:34;23.55;;;11.43;;
39050;SDS011;24805;55.852;37.644;2023-08-06T04:00:36;24.25;;;10.38;;
39050;SDS011;24805;55.852;37.644;2023-08-06T04:05:38;24.02;;;11.68;;
39050;SDS011;24805;55.852;37.644;2023-08-06T04:10:41;18.50;;;11.50;;
39050;SDS011;24805;55.852;37.644;2023-08-06T04:15:43;26.23;;;12.68;;
39050;SDS011;24805;55.852;37.644;2023-08-06T04:20:46;23.63;;;12.32;;
39050;SDS011;24805;55.852;37.644;2023-08-06T04:25:51;28.45;;;13.68;;
39050;SDS011;24805;55.852;37.644;2023-08-06T04:30:53;30.33;;;13.30;;
39050;SDS011;24805;55.852;37.644;2023-08-06T04:35:57;26.85;;;12.57;;
39050;SDS011;24805;55.852;37.644;2023-08-06T04:41:02;36.95;;;14.63;;
39050;SDS011;24805;55.852;37.644;2023-08-06T04:46:06;32.90;;;14.00;;
39050;SDS011;24805;55.852;37.644;2023-08-06T04:51:08;25.13;;;10.10;;
39050;SDS011;24805;55.852;37.644;2023-08-06T04:56:10;22.60;;;9.07;;
39050;SDS011;24805;55.852;37.644;2023-08-06T05:01:13;16.90;;;7.60;;
39050;SDS011;24805;55.852;37.644;2023-08-06T05:06:15;18.85;;;8.80;;
39050;SDS011;24805;55.852;37.644;2023-08-06T05:11:17;17.23;;;8.00;;
39050;SDS011;24805;55.852;37.644;2023-08-06T05:16:20;18.67;;;9.27;;
39050;SDS011;24805;55.852;37.644;2023-08-06T05:21:22;16.02;;;9.05;;
39050;SDS011;24805;55.852;37.644;2023-08-06T05:26:25;31.15;;;10.00;;
39050;SDS011;24805;55.852;37.644;2023-08-06T05:31:27;18.60;;;8.65;;
39050;SDS011;24805;55.852;37.644;2023-08-06T05:36:30;12.57;;;6.40;;
39050;SDS011;24805;55.852;37.644;2023-08-06T05:41:33;11.68;;;6.28;;
39050;SDS011;24805;55.852;37.644;2023-08-06T05:46:35;16.80;;;6.80;;
39050;SDS011;24805;55.852;37.644;2023-08-06T05:51:37;13.20;;;6.05;;
39050;SDS011;24805;55.852;37.644;2023-08-06T05:56:40;11.00;;;5.72;;
39050;SDS011;24805;55.852;37.644;2023-08-06T06:01:42;13.05;;;5.45;;
39050;SDS011;24805;55.852;37.644;2023-08-06T06:06:44;9.93;;;5.47;;
39050;SDS011;24805;55.852;37.644;2023-08-06T06:11:47;10.15;;;4.85;;
39050;SDS011;24805;55.852;37.644;2023-08-06T06:16:51;10.48;;;5.20;;
39050;SDS011;24805;55.852;37.644;2023-08-06T06:21:55;8.35;;;4.80;;
39050;SDS011;24805;55.852;37.644;2023-08-06T06:26:59;7.45;;;4.57;;
39050;SDS011;24805;55.852;37.644;2023-08-06T06:32:02;8.27;;;4.47;;
39050;SDS011;24805;55.852;37.644;2023-08-06T06:37:05;7.97;;;4.40;;
39050;SDS011;24805;55.852;37.644;2023-08-06T06:42:07;12.07;;;4.65;;
39050;SDS011;24805;55.852;37.644;2023-08-06T06:47:16;12.20;;;5.00;;
39050;SDS011;24805;55.852;37.644;2023-08-06T06:52:18;10.23;;;3.42;;
39050;SDS011;24805;55.852;37.644;2023-08-06T06:57:20;6.18;;;3.60;;
39050;SDS011;24805;55.852;37.644;2023-08-06T07:02:23;6.93;;;3.95;;
39050;SDS011;24805;55.852;37.644;2023-08-06T07:07:25;13.90;;;4.10;;
39050;SDS011;24805;55.852;37.644;2023-08-06T07:12:27;8.90;;;3.20;;
39050;SDS011;24805;55.852;37.644;2023-08-06T07:17:30;7.07;;;3.38;;
39050;SDS011;24805;55.852;37.644;2023-08-06T07:22:32;9.82;;;3.22;;
39050;SDS011;24805;55.852;37.644;2023-08-06T07:27:35;9.00;;;3.63;;
39050;SDS011;24805;55.852;37.644;2023-08-06T07:32:37;6.78;;;3.00;;
39050;SDS011;24805;55.852;37.644;2023-08-06T07:37:40;6.32;;;3.00;;
39050;SDS011;24805;55.852;37.644;2023-08-06T07:42:42;4.05;;;2.80;;
39050;SDS011;24805;55.852;37.644;2023-08-06T07:47:45;9.68;;;2.92;;
39050;SDS011;24805;55.852;37.644;2023-08-06T07:52:47;7.63;;;2.97;;
39050;SDS011;24805;55.852;37.644;2023-08-06T07:57:50;5.57;;;2.70;;
39050;SDS011;24805;55.852;37.644;2023-08-06T08:02:52;6.90;;;2.20;;
39050;SDS011;24805;55.852;37.644;2023-08-06T08:07:55;6.40;;;2.40;;
39050;SDS011;24805;55.852;37.644;2023-08-06T08:12:57;5.43;;;2.55;;
39050;SDS011;24805;55.852;37.644;2023-08-06T08:18:00;5.50;;;2.70;;
39050;SDS011;24805;55.852;37.644;2023-08-06T08:23:03;5.93;;;2.47;;
39050;SDS011;24805;55.852;37.644;2023-08-06T08:28:05;2.85;;;2.30;;
39050;SDS011;24805;55.852;37.644;2023-08-06T08:33:09;6.28;;;2.13;;
39050;SDS011;24805;55.852;37.644;2023-08-06T08:38:11;4.63;;;2.67;;
39050;SDS011;24805;55.852;37.644;2023-08-06T08:43:14;6.00;;;2.67;;
39050;SDS011;24805;55.852;37.644;2023-08-06T08:48:17;5.22;;;2.28;;
39050;SDS011;24805;55.852;37.644;2023-08-06T08:53:23;7.38;;;2.08;;
39050;SDS011;24805;55.852;37.644;2023-08-06T08:58:26;3.92;;;2.65;;
39050;SDS011;24805;55.852;37.644;2023-08-06T09:03:29;3.15;;;2.20;;
39050;SDS011;24805;55.852;37.644;2023-08-06T09:08:43;5.05;;;2.38;;
39050;SDS011;24805;55.852;37.644;2023-08-06T09:13:53;8.10;;;2.72;;
39050;SDS011;24805;55.852;37.644;2023-08-06T09:19:00;11.10;;;2.30;;
39050;SDS011;24805;55.852;37.644;2023-08-06T09:24:12;5.07;;;3.00;;
39050;SDS011;24805;55.852;37.644;2023-08-06T09:29:16;4.90;;;2.40;;
39050;SDS011;24805;55.852;37.644;2023-08-06T09:34:22;6.32;;;2.60;;
39050;SDS011;24805;55.852;37.644;2023-08-06T09:39:29;8.95;;;5.85;;
39050;SDS011;24805;55.852;37.644;2023-08-06T09:44:33;7.55;;;3.30;;
39050;SDS011;24805;55.852;37.644;2023-08-06T09:54:39;4.43;;;2.83;;
39050;SDS011;24805;55.852;37.644;2023-08-06T09:59:41;8.25;;;3.33;;
39050;SDS011;24805;55.852;37.644;2023-08-06T10:04:44;3.60;;;2.65;;
39050;SDS011;24805;55.852;37.644;2023-08-06T10:09:56;8.43;;;3.42;;
39050;SDS011;24805;55.852;37.644;2023-08-06T10:14:59;6.60;;;3.20;;
39050;SDS011;24805;55.852;37.644;2023-08-06T10:20:07;12.60;;;3.08;;
39050;SDS011;24805;55.852;37.644;2023-08-06T10:25:10;9.23;;;2.92;;
39050;SDS011;24805;55.852;37.644;2023-08-06T10:30:25;9.95;;;3.92;;
39050;SDS011;24805;55.852;37.644;2023-08-06T10:36:03;6.18;;;3.00;;
39050;SDS011;24805;55.852;37.644;2023-08-06T10:41:04;6.53;;;2.60;;
39050;SDS011;24805;55.852;37.644;2023-08-06T10:46:11;6.68;;;2.75;;
39050;SDS011;24805;55.852;37.644;2023-08-06T10:51:23;5.57;;;3.08;;
39050;SDS011;24805;55.852;37.644;2023-08-06T10:56:26;7.03;;;3.40;;
39050;SDS011;24805;55.852;37.644;2023-08-06T11:01:29;5.03;;;2.80;;
39050;SDS011;24805;55.852;37.644;2023-08-06T11:06:32;5.75;;;2.47;;
39050;SDS011;24805;55.852;37.644;2023-08-06T11:11:35;5.10;;;2.83;;
39050;SDS011;24805;55.852;37.644;2023-08-06T11:16:38;4.00;;;2.58;;
39050;SDS011;24805;55.852;37.644;2023-08-06T11:21:43;7.10;;;3.35;;
39050;SDS011;24805;55.852;37.644;2023-08-06T11:26:46;9.55;;;3.60;;
39050;SDS011;24805;55.852;37.644;2023-08-06T11:31:51;5.25;;;2.70;;
39050;SDS011;24805;55.852;37.644;2023-08-06T11:36:53;3.42;;;2.40;;
39050;SDS011;24805;55.852;37.644;2023-08-06T11:41:59;3.65;;;2.70;;
39050;SDS011;24805;55.852;37.644;2023-08-06T11:47:05;5.00;;;3.35;;
39050;SDS011;24805;55.852;37.644;2023-08-06T11:52:09;4.57;;;2.83;;
39050;SDS011;24805;55.852;37.644;2023-08-06T11:57:15;13.40;;;11.18;;
39050;SDS011;24805;55.852;37.644;2023-08-06T12:02:20;4.88;;;2.97;;
39050;SDS011;24805;55.852;37.644;2023-08-06T12:07:26;7.03;;;2.65;;
39050;SDS011;24805;55.852;37.644;2023-08-06T12:12:30;7.45;;;3.47;;
39050;SDS011;24805;55.852;37.644;2023-08-06T12:17:34;5.65;;;2.88;;
39050;SDS011;24805;55.852;37.644;2023-08-06T12:22:38;3.55;;;2.47;;
39050;SDS011;24805;55.852;37.644;2023-08-06T12:27:42;7.88;;;3.45;;
39050;SDS011;24805;55.852;37.644;2023-08-06T12:32:46;4.85;;;2.65;;
39050;SDS011;24805;55.852;37.644;2023-08-06T12:37:49;5.60;;;2.90;;
39050;SDS011;24805;55.852;37.644;2023-08-06T12:42:54;4.10;;;2.75;;
39050;SDS011;24805;55.852;37.644;2023-08-06T12:47:57;7.30;;;2.50;;
39050;SDS011;24805;55.852;37.644;2023-08-06T12:53:00;4.50;;;2.50;;
39050;SDS011;24805;55.852;37.644;2023-08-06T12:58:03;7.07;;;2.90;;
39050;SDS011;24805;55.852;37.644;2023-08-06T13:03:08;5.80;;;2.45;;
39050;SDS011;24805;55.852;37.644;2023-08-06T13:08:11;5.18;;;2.80;;
39050;SDS011;24805;55.852;37.644;2023-08-06T13:13:13;9.27;;;6.13;;
39050;SDS011;24805;55.852;37.644;2023-08-06T13:18:16;3.78;;;2.92;;
39050;SDS011;24805;55.852;37.644;2023-08-06T13:23:19;6.68;;;3.13;;
39050;SDS011;24805;55.852;37.644;2023-08-06T13:28:23;9.02;;;3.63;;
39050;SDS011;24805;55.852;37.644;2023-08-06T13:33:25;6.05;;;3.13;;
39050;SDS011;24805;55.852;37.644;2023-08-06T13:38:28;6.88;;;3.00;;
39050;SDS011;24805;55.852;37.644;2023-08-06T13:43:31;6.82;;;3.50;;
39050;SDS011;24805;55.852;37.644;2023-08-06T13:48:33;6.55;;;3.10;;
39050;SDS011;24805;55.852;37.644;2023-08-06T13:53:37;4.53;;;2.85;;
39050;SDS011;24805;55.852;37.644;2023-08-06T13:58:41;6.60;;;3.28;;
39050;SDS011;24805;55.852;37.644;2023-08-06T14:03:44;8.75;;;4.18;;
39050;SDS011;24805;55.852;37.644;2023-08-06T14:08:46;7.88;;;3.58;;
39050;SDS011;24805;55.852;37.644;2023-08-06T14:13:49;6.28;;;3.72;;
39050;SDS011;24805;55.852;37.644;2023-08-06T14:18:51;5.70;;;3.13;;
39050;SDS011;24805;55.852;37.644;2023-08-06T14:23:54;6.78;;;4.03;;
39050;SDS011;24805;55.852;37.644;2023-08-06T14:28:56;4.63;;;3.20;;
39050;SDS011;24805;55.852;37.644;2023-08-06T14:33:59;6.53;;;3.38;;
39050;SDS011;24805;55.852;37.644;2023-08-06T14:39:01;14.70;;;10.38;;
39050;SDS011;24805;55.852;37.644;2023-08-06T14:44:04;5.10;;;3.47;;
39050;SDS011;24805;55.852;37.644;2023-08-06T14:49:09;6.95;;;4.15;;
39050;SDS011;24805;55.852;37.644;2023-08-06T14:54:11;9.10;;;4.20;;
39050;SDS011;24805;55.852;37.644;2023-08-06T14:59:14;6.05;;;4.05;;
39050;SDS011;24805;55.852;37.644;2023-08-06T15:04:16;16.65;;;7.00;;
39050;SDS011;24805;55.852;37.644;2023-08-06T15:09:20;7.53;;;4.00;;
39050;SDS011;24805;55.852;37.644;2023-08-06T15:14:23;5.28;;;3.95;;
39050;SDS011;24805;55.852;37.644;2023-08-06T15:19:26;11.23;;;4.03;;
39050;SDS011;24805;55.852;37.644;2023-08-06T15:24:28;5.82;;;3.92;;
39050;SDS011;24805;55.852;37.644;2023-08-06T15:29:31;7.57;;;4.00;;
39050;SDS011;24805;55.852;37.644;2023-08-06T15:34:34;5.70;;;3.83;;
39050;SDS011;24805;55.852;37.644;2023-08-06T15:39:36;9.25;;;3.80;;
39050;SDS011;24805;55.852;37.644;2023-08-06T15:44:39;6.03;;;4.00;;
39050;SDS011;24805;55.852;37.644;2023-08-06T15:49:41;7.13;;;3.92;;
39050;SDS011;24805;55.852;37.644;2023-08-06T15:54:44;7.80;;;3.35;;
39050;SDS011;24805;55.852;37.644;2023-08-06T15:59:47;7.90;;;4.38;;
39050;SDS011;24805;55.852;37.644;2023-08-06T16:04:50;8.52;;;5.88;;
39050;SDS011;24805;55.852;37.644;2023-08-06T16:09:53;5.65;;;4.20;;
39050;SDS011;24805;55.852;37.644;2023-08-06T16:14:56;7.72;;;4.47;;
39050;SDS011;24805;55.852;37.644;2023-08-06T16:19:58;12.15;;;4.55;;
39050;SDS011;24805;55.852;37.644;2023-08-06T16:25:01;7.00;;;4.40;;
39050;SDS011;24805;55.852;37.644;2023-08-06T16:30:04;8.75;;;4.88;;
39050;SDS011;24805;55.852;37.644;2023-08-06T16:35:08;11.68;;;5.05;;
39050;SDS011;24805;55.852;37.644;2023-08-06T16:40:12;12.77;;;5.32;;
39050;SDS011;24805;55.852;37.644;2023-08-06T16:45:14;13.13;;;4.78;;
39050;SDS011;24805;55.852;37.644;2023-08-06T16:50:17;8.57;;;5.35;;
39050;SDS011;24805;55.852;37.644;2023-08-06T16:55:20;10.43;;;5.43;;
39050;SDS011;24805;55.852;37.644;2023-08-06T17:00:23;8.55;;;5.97;;
39050;SDS011;24805;55.852;37.644;2023-08-06T17:05:25;11.40;;;5.68;;
39050;SDS011;24805;55.852;37.644;2023-08-06T17:10:34;10.80;;;5.22;;
39050;SDS011;24805;55.852;37.644;2023-08-06T17:15:38;10.07;;;6.35;;
39050;SDS011;24805;55.852;37.644;2023-08-06T17:20:41;7.50;;;6.15;;
39050;SDS011;24805;55.852;37.644;2023-08-06T17:25:44;11.13;;;8.85;;
39050;SDS011;24805;55.852;37.644;2023-08-06T17:30:48;10.73;;;5.63;;
39050;SDS011;24805;55.852;37.644;2023-08-06T17:35:52;11.93;;;9.02;;
39050;SDS011;24805;55.852;37.644;2023-08-06T17:40:55;13.32;;;10.20;;
39050;SDS011;24805;55.852;37.644;2023-08-06T17:46:00;13.43;;;6.63;;
39050;SDS011;24805;55.852;37.644;2023-08-06T17:51:03;24.15;;;9.50;;
39050;SDS011;24805;55.852;37.644;2023-08-06T17:56:06;31.83;;;11.55;;
39050;SDS011;24805;55.852;37.644;2023-08-06T18:01:09;19.98;;;7.20;;
39050;SDS011;24805;55.852;37.644;2023-08-06T18:06:12;15.45;;;7.40;;
39050;SDS011;24805;55.852;37.644;2023-08-06T18:11:14;17.35;;;6.32;;
39050;SDS011;24805;55.852;37.644;2023-08-06T18:16:19;20.33;;;7.97;;
39050;SDS011;24805;55.852;37.644;2023-08-06T18:21:23;20.35;;;7.18;;
39050;SDS011;24805;55.852;37.644;2023-08-06T18:26:26;18.23;;;6.22;;
39050;SDS011;24805;55.852;37.644;2023-08-06T18:31:29;17.70;;;6.40;;
39050;SDS011;24805;55.852;37.644;2023-08-06T18:36:32;11.23;;;6.60;;
39050;SDS011;24805;55.852;37.644;2023-08-06T18:41:35;36.58;;;27.00;;
39050;SDS011;24805;55.852;37.644;2023-08-06T18:46:38;20.45;;;10.32;;
39050;SDS011;24805;55.852;37.644;2023-08-06T18:51:41;16.70;;;8.65;;
39050;SDS011;24805;55.852;37.644;2023-08-06T18:56:44;9.55;;;6.78;;
39050;SDS011;24805;55.852;37.644;2023-08-06T19:01:47;8.65;;;5.90;;
39050;SDS011;24805;55.852;37.644;2023-08-06T19:06:49;13.65;;;6.85;;
39050;SDS011;24805;55.852;37.644;2023-08-06T19:11:52;32.13;;;10.25;;
39050;SDS011;24805;55.852;37.644;2023-08-06T19:16:56;24.90;;;9.00;;
39050;SDS011;24805;55.852;37.644;2023-08-06T19:22:01;32.55;;;14.07;;
39050;SDS011;24805;55.852;37.644;2023-08-06T19:27:04;29.60;;;10.13;;
39050;SDS011;24805;55.852;37.644;2023-08-06T19:32:07;28.02;;;10.40;;
39050;SDS011;24805;55.852;37.644;2023-08-06T19:37:10;35.78;;;11.57;;
39050;SDS011;24805;55.852;37.644;2023-08-06T19:42:15;15.45;;;7.93;;
39050;SDS011;24805;55.852;37.644;2023-08-06T19:47:17;19.85;;;8.57;;
39050;SDS011;24805;55.852;37.644;2023-08-06T19:52:20;23.55;;;8.57;;
39050;SDS011;24805;55.852;37.644;2023-08-06T19:57:23;23.38;;;8.90;;
39050;SDS011;24805;55.852;37.644;2023-08-06T20:02:26;32.05;;;9.13;;
39050;SDS011;24805;55.852;37.644;2023-08-06T20:07:29;25.92;;;9.52;;
39050;SDS011;24805;55.852;37.644;2023-08-06T20:12:32;22.00;;;8.43;;
39050;SDS011;24805;55.852;37.644;2023-08-06T20:17:34;23.70;;;8.20;;
39050;SDS011;24805;55.852;37.644;2023-08-06T20:22:37;22.15;;;8.00;;
39050;SDS011;24805;55.852;37.644;2023-08-06T20:27:39;12.55;;;6.88;;
39050;SDS011;24805;55.852;37.644;2023-08-06T20:32:42;10.90;;;6.10;;
39050;SDS011;24805;55.852;37.644;2023-08-06T20:37:45;11.38;;;6.05;;
39050;SDS011;24805;55.852;37.644;2023-08-06T20:42:47;12.07;;;6.35;;
39050;SDS011;24805;55.852;37.644;2023-08-06T20:47:50;11.93;;;6.00;;
39050;SDS011;24805;55.852;37.644;2023-08-06T20:52:52;11.57;;;5.72;;
39050;SDS011;24805;55.852;37.644;2023-08-06T20:57:55;11.13;;;7.00;;
39050;SDS011;24805;55.852;37.644;2023-08-06T21:02:58;6.93;;;5.97;;
39050;SDS011;24805;55.852;37.644;2023-08-06T21:08:00;12.07;;;8.23;;
39050;SDS011;24805;55.852;37.644;2023-08-06T21:13:03;8.60;;;6.30;;
39050;SDS011;24805;55.852;37.644;2023-08-06T21:18:06;10.40;;;6.05;;
39050;SDS011;24805;55.852;37.644;2023-08-06T21:23:08;8.55;;;6.13;;
39050;SDS011;24805;55.852;37.644;2023-08-06T21:28:11;10.45;;;6.00;;
39050;SDS011;24805;55.852;37.644;2023-08-06T21:33:14;12.82;;;11.02;;
39050;SDS011;24805;55.852;37.644;2023-08-06T21:38:17;9.75;;;6.25;;
39050;SDS011;24805;55.852;37.644;2023-08-06T21:43:19;10.20;;;5.60;;
39050;SDS011;24805;55.852;37.644;2023-08-06T21:48:22;7.05;;;5.40;;
39050;SDS011;24805;55.852;37.644;2023-08-06T21:53:26;8.07;;;5.82;;
39050;SDS011;24805;55.852;37.644;2023-08-06T21:58:28;8.60;;;5.53;;
39050;SDS011;24805;55.852;37.644;2023-08-06T22:03:31;8.95;;;4.78;;
39050;SDS011;24805;55.852;37.644;2023-08-06T22:08:34;14.27;;;5.72;;
39050;SDS011;24805;55.852;37.644;2023-08-06T22:13:37;10.18;;;5.75;;
39050;SDS011;24805;55.852;37.644;2023-08-06T22:18:41;9.30;;;7.03;;
39050;SDS011;24805;55.852;37.644;2023-08-06T22:23:43;11.18;;;5.20;;
39050;SDS011;24805;55.852;37.644;2023-08-06T22:28:46;5.72;;;4.63;;
39050;SDS011;24805;55.852;37.644;2023-08-06T22:34:02;7.38;;;4.85;;
39050;SDS011;24805;55.852;37.644;2023-08-06T22:39:04;7.93;;;4.70;;
39050;SDS011;24805;55.852;37.644;2023-08-06T22:44:07;6.25;;;4.47;;
39050;SDS011;24805;55.852;37.644;2023-08-06T22:49:09;7.05;;;4.35;;
39050;SDS011;24805;55.852;37.644;2023-08-06T22:54:11;7.32;;;4.00;;
39050;SDS011;24805;55.852;37.644;2023-08-06T22:59:14;8.32;;;4.28;;
39050;SDS011;24805;55.852;37.644;2023-08-06T23:04:16;8.98;;;5.13;;
39050;SDS011;24805;55.852;37.644;2023-08-06T23:09:19;8.57;;;4.72;;
39050;SDS011;24805;55.852;37.644;2023-08-06T23:14:21;14.15;;;5.68;;
39050;SDS011;24805;55.852;37.644;2023-08-06T23:19:24;10.73;;;4.80;;
39050;SDS011;24805;55.852;37.644;2023-08-06T23:24:26;11.68;;;8.68;;
39050;SDS011;24805;55.852;37.644;2023-08-06T23:29:29;4.78;;;3.80;;
39050;SDS011;24805;55.852;37.644;2023-08-06T23:34:31;13.35;;;6.95;;
39050;SDS011;24805;55.852;37.644;2023-08-06T23:39:49;10.93;;;5.93;;
39050;SDS011;24805;55.852;37.644;2023-08-06T23:44:55;10.95;;;4.97;;
39050;SDS011;24805;55.852;37.644;2023-08-06T23:49:57;6.15;;;4.20;;
39050;SDS011;24805;55.852;37.644;2023-08-06T23:55:00;9.52;;;3.97;;
